Airfield :
LOGIN :

Register | Disclaimer

   EN    FR    IT 

 










Legend :    VFR   Marginal VFR   IFR   Intensive IFR   Very Intensive IFR
Visi :
Ceiling :
>= 8 km
>= 3000ft
5 to 8 km
1000 to 3000 ft
1500m to 5 km
500 to 1000 ft
800 to 1500m
200 to 500 ft
< 800m
< 200 ft
Symbols :   Thunderstorms  Fog  Heavy snow  Heavy precipitations  Wind > 20 kt
SIGMETs :     Misc.  Thunderstorms  Icing  Turbulence  Mountain Waves  Volcanic Ashes






- Airport Elevation : 616 ft
- IATA code : PUF


LFBP - Pau

CURRENT METAR :
  • 280700Z AUTO 24007KT 9999 FEW013/// BKN036/// BKN052/// ///TCU 09/08 Q1020 TEMPO 3000 RA SCT020 BKN035

EXPIRED METARs :
  • 280630Z AUTO 22006KT 9999 -RA FEW007/// SCT045/// OVC054/// ///CB 08/08 Q1019 TEMPO 3000 RA SCT020 BKN035
  • 280600Z AUTO 22006KT 200V260 8000 -RA FEW010/// BKN015/// BKN023/// ///CB 08/08 Q1019 BECMG SCT020 BKN035
  • 280530Z AUTO 18004KT 150V210 9999 -RA BKN023/// BKN031/// BKN037/// ///CB 08/08 Q1019 TEMPO 3000 RA SCT020 BKN035
  • 280500Z AUTO 21004KT 180V280 7000 RA SCT030/// BKN040/// OVC050/// ///TCU 09/07 Q1019 TEMPO 2000 RA BECMG SCT020 BKN035

TAF TAF LFBP
Valid from the 28 at 06:00 until the 29 at 06:00 UTC


280500Z 2806/2906 25010KT 9999 -RA BKN035
BECMG 2806/2808 NSW SCT020 BKN035
TEMPO 2808/2906 3000 RA BKN013TCU BKN030
PROB30
TEMPO 2813/2818 -TSRA BKN010 SCT025CB
TEMPO 2900/2904 3000 RA BKN007 BKN015TCU



MET'MAP, your aeronautical weather chart ! - Copyright ORBIFLY December 2007 - Disclaimer

ORBIFLY MET'MAP TEAM :

Programming & Development : Alexandra Zaïnal
Original concept : Baudouin d'Aumeries
Technical & hardware support : Manuel Goepfert
Assistance : Marc-Olivier Méhu




SOURCES & CREDITS :

   NOAA